createdAt,value
2022-11-06T00:00:47.825Z,17.40
2022-11-06T00:03:16.287Z,17.30
2022-11-06T00:06:02.370Z,17.30
2022-11-06T00:08:34.158Z,17.30
2022-11-06T00:11:02.992Z,17.30
2022-11-06T00:13:32.305Z,17.30
2022-11-06T00:16:04.768Z,17.20
2022-11-06T00:18:33.660Z,17.20
2022-11-06T00:21:08.414Z,17.30
2022-11-06T00:23:38.430Z,17.20
2022-11-06T00:26:08.280Z,17.20
2022-11-06T00:28:37.134Z,17.20
2022-11-06T00:31:06.696Z,17.20
2022-11-06T00:33:35.531Z,17.20
2022-11-06T00:36:04.701Z,17.20
2022-11-06T00:38:33.439Z,17.20
2022-11-06T00:41:06.374Z,17.20
2022-11-06T00:43:35.915Z,17.20
2022-11-06T00:46:05.551Z,17.20
2022-11-06T00:48:33.913Z,17.20
2022-11-06T00:51:05.394Z,17.20
2022-11-06T00:53:33.859Z,17.20
2022-11-06T00:56:11.955Z,17.10
2022-11-06T00:58:40.805Z,17.10
2022-11-06T01:01:13.016Z,17.10
2022-11-06T01:03:42.556Z,17.10
2022-11-06T01:06:13.032Z,17.10
2022-11-06T01:08:41.953Z,17.10
2022-11-06T01:11:14.445Z,17.00
2022-11-06T01:13:43.438Z,17.00
2022-11-06T01:16:14.685Z,17.00
2022-11-06T01:18:44.439Z,17.00
2022-11-06T01:21:15.122Z,17.00
2022-11-06T01:23:44.314Z,17.00
2022-11-06T01:26:21.305Z,17.00
2022-11-06T01:29:02.709Z,17.00
2022-11-06T01:31:32.909Z,16.90
2022-11-06T01:34:02.428Z,16.90
2022-11-06T01:36:31.998Z,16.90
2022-11-06T01:39:04.809Z,16.90
2022-11-06T01:41:36.468Z,16.90
2022-11-06T01:44:09.760Z,16.90
2022-11-06T01:46:38.441Z,16.90
2022-11-06T01:49:15.855Z,16.90
2022-11-06T01:51:48.017Z,16.90
2022-11-06T01:54:17.075Z,16.90
2022-11-06T01:56:50.733Z,16.90
2022-11-06T01:59:22.534Z,16.90
2022-11-06T02:01:51.072Z,16.90
2022-11-06T02:04:23.515Z,16.80
2022-11-06T02:06:53.432Z,16.80
2022-11-06T02:09:22.020Z,16.80
2022-11-06T02:12:00.220Z,16.80
2022-11-06T02:14:35.863Z,16.80
2022-11-06T02:17:11.275Z,16.80
2022-11-06T02:19:54.168Z,16.80
2022-11-06T02:22:36.875Z,16.80
2022-11-06T02:25:16.796Z,16.70
2022-11-06T02:27:50.136Z,16.80
2022-11-06T02:30:19.780Z,16.70
2022-11-06T02:32:53.755Z,16.70
2022-11-06T02:35:26.830Z,16.80
2022-11-06T02:37:58.937Z,16.70
2022-11-06T02:40:33.270Z,16.70
2022-11-06T02:43:07.500Z,16.70
2022-11-06T02:45:42.883Z,16.70
2022-11-06T02:48:13.522Z,16.70
2022-11-06T02:50:47.015Z,16.60
2022-11-06T02:53:17.813Z,16.70
2022-11-06T02:55:49.709Z,16.70
2022-11-06T02:58:22.817Z,16.70
2022-11-06T03:00:56.732Z,16.70
2022-11-06T03:03:27.841Z,16.70
2022-11-06T03:06:00.809Z,16.60
2022-11-06T03:08:36.505Z,16.60
2022-11-06T03:11:13.353Z,16.60
2022-11-06T03:13:51.589Z,16.60
2022-11-06T03:16:30.044Z,16.60
2022-11-06T03:19:04.091Z,16.60
2022-11-06T03:21:39.506Z,16.60
2022-11-06T03:24:14.351Z,16.60
2022-11-06T03:26:46.773Z,16.50
2022-11-06T03:29:21.444Z,16.60
2022-11-06T03:31:55.400Z,16.50
2022-11-06T03:34:31.263Z,16.50
2022-11-06T03:37:06.014Z,16.50
2022-11-06T03:39:39.424Z,16.50
2022-11-06T03:42:11.424Z,16.50
2022-11-06T03:44:45.327Z,16.50
2022-11-06T03:47:19.537Z,16.50
2022-11-06T03:49:52.502Z,16.50
2022-11-06T03:52:28.484Z,16.50
2022-11-06T03:55:00.137Z,16.50
2022-11-06T03:57:35.438Z,16.50
2022-11-06T04:00:09.156Z,16.50
2022-11-06T04:02:41.049Z,16.50
2022-11-06T04:05:14.613Z,16.50
2022-11-06T04:08:07.752Z,16.50
2022-11-06T04:10:55.856Z,16.40
2022-11-06T04:13:43.289Z,16.40
2022-11-06T04:16:13.443Z,16.40
2022-11-06T04:18:41.739Z,16.40
2022-11-06T04:21:26.721Z,16.40
2022-11-06T04:24:26.289Z,16.40
2022-11-06T04:27:06.653Z,16.40
2022-11-06T04:29:47.089Z,16.40
2022-11-06T04:32:23.550Z,16.40
2022-11-06T04:35:03.196Z,16.40
2022-11-06T04:37:38.081Z,16.40
2022-11-06T04:40:11.171Z,16.40
2022-11-06T04:42:47.361Z,16.40
2022-11-06T04:45:22.153Z,16.30
2022-11-06T04:47:53.338Z,16.30
2022-11-06T04:50:24.527Z,16.30
2022-11-06T04:52:54.294Z,16.30
2022-11-06T04:55:23.645Z,16.30
2022-11-06T04:57:52.251Z,16.30
2022-11-06T05:00:21.273Z,16.30
2022-11-06T05:02:49.575Z,16.30
2022-11-06T05:05:19.464Z,16.30
2022-11-06T05:07:47.974Z,16.30
2022-11-06T05:10:16.460Z,16.30
2022-11-06T05:12:44.944Z,16.30
2022-11-06T05:15:13.233Z,16.30
2022-11-06T05:17:41.550Z,16.20
2022-11-06T05:20:10.291Z,16.30
2022-11-06T05:23:01.035Z,16.30
2022-11-06T05:25:31.947Z,16.30
2022-11-06T05:28:01.068Z,16.20
2022-11-06T05:30:29.546Z,16.20
2022-11-06T05:32:58.192Z,16.20
2022-11-06T05:35:26.636Z,16.20
2022-11-06T05:38:02.099Z,16.20
2022-11-06T05:40:31.018Z,16.20
2022-11-06T05:42:59.418Z,16.20
2022-11-06T05:45:27.771Z,16.20
2022-11-06T05:47:56.201Z,16.10
2022-11-06T05:50:24.537Z,16.20
2022-11-06T05:52:52.861Z,16.20
2022-11-06T05:55:22.599Z,16.10
2022-11-06T05:57:50.934Z,16.10
2022-11-06T06:00:19.662Z,16.10
2022-11-06T06:02:48.026Z,16.10
2022-11-06T06:05:16.529Z,16.10
2022-11-06T06:07:45.344Z,16.10
2022-11-06T06:10:13.667Z,16.10
2022-11-06T06:12:43.356Z,16.10
2022-11-06T06:15:15.105Z,16.10
2022-11-06T06:17:43.350Z,16.10
2022-11-06T06:20:12.681Z,16.00
2022-11-06T06:22:41.119Z,16.10
2022-11-06T06:25:19.545Z,16.10
2022-11-06T06:27:52.551Z,16.00
2022-11-06T06:30:24.642Z,16.00
2022-11-06T06:32:53.872Z,16.00
2022-11-06T06:35:22.222Z,16.00
2022-11-06T06:37:54.785Z,16.00
2022-11-06T06:40:23.635Z,16.00
2022-11-06T06:42:53.338Z,16.00
2022-11-06T06:45:21.605Z,16.00
2022-11-06T06:47:49.996Z,16.00
2022-11-06T06:50:18.615Z,16.00
2022-11-06T06:52:47.462Z,16.00
2022-11-06T06:55:15.840Z,16.00
2022-11-06T06:57:44.173Z,16.00
2022-11-06T07:00:14.644Z,16.10
2022-11-06T07:02:43.021Z,16.10
2022-11-06T07:05:11.355Z,16.10
2022-11-06T07:07:39.647Z,16.10
2022-11-06T07:10:08.949Z,16.00
2022-11-06T07:12:37.343Z,16.00
2022-11-06T07:15:06.750Z,16.10
2022-11-06T07:17:36.633Z,16.10
2022-11-06T07:20:06.060Z,16.10
2022-11-06T07:22:37.361Z,16.10
2022-11-06T07:25:07.319Z,16.10
2022-11-06T07:27:35.685Z,16.00
2022-11-06T07:30:04.635Z,16.00
2022-11-06T07:32:33.044Z,16.00
2022-11-06T07:35:02.734Z,16.00
2022-11-06T07:37:31.075Z,16.00
2022-11-06T07:39:59.373Z,16.10
2022-11-06T07:42:29.026Z,16.10
2022-11-06T07:44:57.313Z,16.10
2022-11-06T07:47:27.813Z,16.10
2022-11-06T07:49:56.180Z,16.20
2022-11-06T07:52:25.955Z,16.30
2022-11-06T07:54:54.299Z,16.30
2022-11-06T07:57:22.899Z,16.40
2022-11-06T07:59:51.249Z,16.50
2022-11-06T08:02:19.835Z,16.50
2022-11-06T08:04:48.163Z,16.60
2022-11-06T08:07:16.453Z,16.60
2022-11-06T08:09:46.201Z,16.70
2022-11-06T08:12:15.197Z,16.70
2022-11-06T08:14:43.819Z,16.80
2022-11-06T08:17:12.188Z,16.80
2022-11-06T08:19:40.670Z,16.90
2022-11-06T08:22:10.794Z,16.90
2022-11-06T08:24:39.131Z,17.00
2022-11-06T08:27:08.929Z,17.00
2022-11-06T08:29:41.396Z,17.00
2022-11-06T08:32:10.387Z,17.10
2022-11-06T08:34:38.776Z,17.10
2022-11-06T08:37:07.142Z,17.20
2022-11-06T08:39:35.729Z,17.20
2022-11-06T08:42:05.463Z,17.30
2022-11-06T08:44:35.438Z,17.30
2022-11-06T08:47:03.721Z,17.40
2022-11-06T08:49:31.999Z,17.40
2022-11-06T08:52:00.363Z,17.50
2022-11-06T08:54:28.801Z,17.50
2022-11-06T08:56:58.768Z,17.60
2022-11-06T08:59:27.171Z,17.70
2022-11-06T09:01:58.500Z,17.70
2022-11-06T09:04:26.971Z,17.70
2022-11-06T09:06:55.491Z,17.80
2022-11-06T09:09:23.915Z,17.80
2022-11-06T09:11:52.186Z,17.80
2022-11-06T09:14:20.535Z,17.90
2022-11-06T09:16:48.941Z,18.00
2022-11-06T09:19:18.930Z,18.00
2022-11-06T09:21:53.428Z,18.10
2022-11-06T09:24:43.334Z,18.10
2022-11-06T09:27:11.646Z,18.10
2022-11-06T09:29:40.989Z,18.20
2022-11-06T09:32:09.335Z,18.30
2022-11-06T09:34:39.085Z,18.30
2022-11-06T09:37:07.363Z,18.30
2022-11-06T09:39:35.621Z,18.40
2022-11-06T09:42:11.449Z,18.40
2022-11-06T09:44:53.212Z,18.50
2022-11-06T09:47:28.095Z,18.50
2022-11-06T09:49:58.816Z,18.50
2022-11-06T09:52:35.099Z,18.60
2022-11-06T09:55:07.704Z,18.70
2022-11-06T09:57:40.469Z,18.70
2022-11-06T10:00:14.103Z,18.80
2022-11-06T10:02:46.799Z,18.80
2022-11-06T10:05:25.798Z,18.90
2022-11-06T10:07:56.899Z,18.90
2022-11-06T10:10:31.553Z,19.00
2022-11-06T10:13:17.992Z,19.00
2022-11-06T10:15:53.542Z,19.10
2022-11-06T10:18:31.224Z,19.10
2022-11-06T10:21:11.478Z,19.10
2022-11-06T10:23:49.252Z,19.20
2022-11-06T10:26:19.798Z,19.30
2022-11-06T10:29:08.990Z,19.20
2022-11-06T10:31:47.522Z,19.30
2022-11-06T10:34:19.667Z,19.40
2022-11-06T10:36:54.418Z,19.40
2022-11-06T10:39:26.262Z,19.40
2022-11-06T10:42:01.947Z,19.50
2022-11-06T10:44:34.927Z,19.60
2022-11-06T10:47:08.059Z,19.60
2022-11-06T10:49:43.145Z,19.70
2022-11-06T10:52:28.367Z,19.70
2022-11-06T10:55:11.231Z,19.70
2022-11-06T10:57:46.650Z,19.80
2022-11-06T11:00:16.613Z,19.80
2022-11-06T11:02:47.912Z,19.90
2022-11-06T11:05:18.658Z,19.90
2022-11-06T11:07:49.878Z,19.90
2022-11-06T11:10:28.711Z,20.00
2022-11-06T11:13:01.689Z,20.10
2022-11-06T11:15:35.207Z,20.10
2022-11-06T11:18:17.748Z,20.20
2022-11-06T11:20:51.213Z,20.20
2022-11-06T11:23:23.702Z,20.30
2022-11-06T11:25:54.277Z,20.40
2022-11-06T11:28:28.203Z,20.40
2022-11-06T11:31:00.398Z,20.40
2022-11-06T11:33:30.112Z,20.50
2022-11-06T11:35:58.653Z,20.60
2022-11-06T11:38:29.465Z,20.60
2022-11-06T11:41:09.310Z,20.70
2022-11-06T11:43:37.675Z,20.70
2022-11-06T11:46:17.033Z,20.70
2022-11-06T11:48:47.495Z,20.80
2022-11-06T11:51:28.220Z,20.90
2022-11-06T11:54:02.541Z,20.90
2022-11-06T11:57:02.306Z,21.00
2022-11-06T11:59:22.802Z,21.00
2022-11-06T12:01:51.731Z,21.00
2022-11-06T12:04:25.587Z,21.00
2022-11-06T12:07:00.290Z,21.00
2022-11-06T12:09:33.271Z,21.00
2022-11-06T12:12:02.752Z,21.00
2022-11-06T12:14:37.471Z,21.10
2022-11-06T12:17:13.226Z,21.10
2022-11-06T12:19:43.965Z,21.20
2022-11-06T12:22:18.349Z,21.20
2022-11-06T12:24:53.202Z,21.30
2022-11-06T12:27:27.229Z,21.30
2022-11-06T12:30:04.739Z,21.30
2022-11-06T12:32:45.872Z,21.40
2022-11-06T12:35:22.875Z,21.40
2022-11-06T12:38:02.001Z,21.40
2022-11-06T12:40:33.118Z,21.40
2022-11-06T12:43:25.969Z,21.50
2022-11-06T12:46:11.853Z,21.50
2022-11-06T12:49:12.511Z,21.50
2022-11-06T12:51:54.408Z,21.60
2022-11-06T12:54:54.804Z,21.60
2022-11-06T12:57:36.166Z,21.60
2022-11-06T13:00:12.155Z,21.70
2022-11-06T13:03:09.340Z,21.70
2022-11-06T13:05:46.501Z,21.70
2022-11-06T13:08:25.955Z,21.70
2022-11-06T13:11:06.309Z,21.70
2022-11-06T13:14:01.772Z,21.70
2022-11-06T13:16:40.298Z,21.70
2022-11-06T13:19:16.477Z,21.70
2022-11-06T13:22:09.316Z,21.60
2022-11-06T13:24:47.375Z,21.70
2022-11-06T13:27:23.843Z,21.70
2022-11-06T13:29:57.431Z,21.70
2022-11-06T13:32:27.799Z,21.80
2022-11-06T13:34:58.716Z,21.80
2022-11-06T13:37:38.893Z,21.80
2022-11-06T13:40:24.926Z,21.90
2022-11-06T13:42:59.438Z,21.90
2022-11-06T13:45:33.669Z,21.90
2022-11-06T13:48:18.257Z,21.90
2022-11-06T13:50:55.530Z,22.00
2022-11-06T13:53:33.738Z,22.00
2022-11-06T13:56:16.839Z,22.00
2022-11-06T13:59:05.187Z,22.10
2022-11-06T14:01:50.744Z,22.10
2022-11-06T14:04:35.924Z,22.10
2022-11-06T14:07:05.954Z,22.10
2022-11-06T14:09:37.271Z,22.10
2022-11-06T14:12:14.933Z,22.10
2022-11-06T14:14:44.738Z,22.10
2022-11-06T14:17:22.590Z,22.00
2022-11-06T14:20:08.262Z,22.00
2022-11-06T14:22:37.997Z,21.90
2022-11-06T14:25:46.425Z,21.90
2022-11-06T14:28:31.108Z,21.90
2022-11-06T14:31:18.290Z,21.80
2022-11-06T14:34:03.211Z,21.80
2022-11-06T14:36:38.657Z,21.80
2022-11-06T14:39:14.500Z,21.70
2022-11-06T14:42:01.463Z,21.80
2022-11-06T14:44:45.871Z,21.70
2022-11-06T14:47:52.721Z,21.80
2022-11-06T14:50:34.858Z,21.70
2022-11-06T14:53:48.249Z,21.60
2022-11-06T14:56:24.097Z,21.70
2022-11-06T14:58:56.294Z,21.60
2022-11-06T15:01:30.353Z,21.60
2022-11-06T15:04:08.294Z,21.60
2022-11-06T15:06:43.746Z,21.60
2022-11-06T15:09:16.863Z,21.50
2022-11-06T15:12:06.525Z,21.50
2022-11-06T15:18:03.764Z,21.50
2022-11-06T15:20:34.603Z,21.50
2022-11-06T15:23:19.825Z,21.40
2022-11-06T15:26:02.197Z,21.40
2022-11-06T15:28:39.364Z,21.40
2022-11-06T15:31:13.357Z,21.40
2022-11-06T15:33:54.416Z,21.40
2022-11-06T15:36:24.809Z,21.30
2022-11-06T15:38:54.655Z,21.30
2022-11-06T15:41:25.640Z,21.30
2022-11-06T15:43:56.116Z,21.30
2022-11-06T15:46:26.860Z,21.30
2022-11-06T15:49:09.536Z,21.20
2022-11-06T15:51:40.896Z,21.20
2022-11-06T15:54:14.961Z,21.20
2022-11-06T15:56:44.673Z,21.20
2022-11-06T15:59:15.759Z,21.10
2022-11-06T16:01:49.301Z,21.10
2022-11-06T16:04:21.776Z,21.00
2022-11-06T16:06:52.803Z,21.00
2022-11-06T16:09:26.390Z,20.90
2022-11-06T16:11:55.407Z,20.90
2022-11-06T16:14:23.938Z,20.90
2022-11-06T16:16:53.817Z,20.80
2022-11-06T16:19:30.715Z,20.80
2022-11-06T16:22:03.363Z,20.80
2022-11-06T16:24:42.108Z,20.70
2022-11-06T16:27:11.742Z,20.70
2022-11-06T16:29:40.674Z,20.60
2022-11-06T16:32:15.405Z,20.60
2022-11-06T16:34:46.083Z,20.50
2022-11-06T16:37:47.019Z,20.50
2022-11-06T16:40:52.985Z,20.40
2022-11-06T16:43:22.639Z,20.40
2022-11-06T16:45:57.013Z,20.40
2022-11-06T16:48:36.402Z,20.30
2022-11-06T16:51:07.480Z,20.30
2022-11-06T16:53:50.005Z,20.30
2022-11-06T16:56:25.618Z,20.20
2022-11-06T16:58:59.367Z,20.20
2022-11-06T17:01:27.761Z,20.10
2022-11-06T17:03:59.768Z,20.10
2022-11-06T17:06:30.280Z,20.10
2022-11-06T17:09:06.408Z,20.00
2022-11-06T17:11:38.929Z,20.00
2022-11-06T17:14:18.779Z,20.00
2022-11-06T17:16:49.639Z,19.90
2022-11-06T17:19:18.168Z,19.90
2022-11-06T17:21:46.953Z,19.80
2022-11-06T17:24:35.935Z,19.90
2022-11-06T17:27:05.250Z,19.80
2022-11-06T17:29:35.914Z,19.80
2022-11-06T17:32:04.931Z,19.80
2022-11-06T17:34:33.907Z,19.70
2022-11-06T17:37:03.579Z,19.70
2022-11-06T17:39:34.073Z,19.70
2022-11-06T17:42:02.380Z,19.70
2022-11-06T17:44:32.196Z,19.60
2022-11-06T17:47:01.382Z,19.60
2022-11-06T17:49:30.332Z,19.60
2022-11-06T17:52:01.807Z,19.60
2022-11-06T17:54:32.741Z,19.60
2022-11-06T17:57:03.455Z,19.50
2022-11-06T17:59:33.962Z,19.50
2022-11-06T18:02:02.776Z,19.50
2022-11-06T18:04:34.236Z,19.50
2022-11-06T18:07:03.277Z,19.40
2022-11-06T18:09:31.569Z,19.40
2022-11-06T18:12:00.120Z,19.40
2022-11-06T18:14:30.443Z,19.30
2022-11-06T18:17:00.233Z,19.30
2022-11-06T18:19:28.982Z,19.30
2022-11-06T18:22:01.053Z,19.30
2022-11-06T18:24:33.003Z,19.30
2022-11-06T18:27:02.001Z,19.30
2022-11-06T18:29:30.425Z,19.20
2022-11-06T18:32:00.154Z,19.20
2022-11-06T18:34:28.542Z,19.20
2022-11-06T18:36:56.832Z,19.20
2022-11-06T18:39:25.379Z,19.20
2022-11-06T18:41:53.744Z,19.10
2022-11-06T18:44:22.234Z,19.10
2022-11-06T18:46:50.833Z,19.10
2022-11-06T18:49:20.574Z,19.10
2022-11-06T18:51:48.863Z,19.00
2022-11-06T18:54:17.149Z,19.00
2022-11-06T18:56:45.662Z,19.00
2022-11-06T18:59:19.601Z,18.90
2022-11-06T19:01:48.316Z,18.90
2022-11-06T19:04:17.277Z,18.90
2022-11-06T19:06:47.525Z,18.90
2022-11-06T19:09:16.085Z,18.90
2022-11-06T19:11:44.861Z,18.90
2022-11-06T19:14:13.559Z,18.80
2022-11-06T19:16:42.248Z,18.90
2022-11-06T19:19:12.241Z,18.90
2022-11-06T19:21:46.143Z,18.80
2022-11-06T19:24:16.542Z,18.80
2022-11-06T19:26:44.960Z,18.80
2022-11-06T19:29:13.597Z,18.80
2022-11-06T19:31:42.578Z,18.70
2022-11-06T19:34:14.887Z,18.70
2022-11-06T19:36:43.407Z,18.70
2022-11-06T19:39:14.265Z,18.70
2022-11-06T19:41:44.578Z,18.70
2022-11-06T19:44:13.506Z,18.70
2022-11-06T19:46:42.457Z,18.60
2022-11-06T19:49:12.389Z,18.60
2022-11-06T19:51:42.614Z,18.60
2022-11-06T19:54:11.520Z,18.60
2022-11-06T19:57:28.288Z,18.60
2022-11-06T19:59:30.915Z,18.60
2022-11-06T20:02:00.380Z,18.60
2022-11-06T20:04:29.291Z,18.50
2022-11-06T20:06:57.895Z,18.50
2022-11-06T20:09:26.385Z,18.50
2022-11-06T20:11:57.775Z,18.40
2022-11-06T20:14:26.395Z,18.40
2022-11-06T20:16:56.395Z,18.40
2022-11-06T20:19:25.117Z,18.40
2022-11-06T20:21:53.893Z,18.30
2022-11-06T20:24:22.469Z,18.40
2022-11-06T20:26:50.859Z,18.40
2022-11-06T20:29:19.403Z,18.30
2022-11-06T20:31:47.859Z,18.30
2022-11-06T20:34:17.815Z,18.30
2022-11-06T20:36:46.287Z,18.30
2022-11-06T20:39:16.991Z,18.30
2022-11-06T20:41:45.811Z,18.20
2022-11-06T20:44:17.322Z,18.20
2022-11-06T20:46:47.817Z,18.20
2022-11-06T20:49:18.050Z,18.20
2022-11-06T20:52:12.247Z,18.20
2022-11-06T20:54:35.682Z,18.20
2022-11-06T20:57:04.606Z,18.10
2022-11-06T20:59:32.916Z,18.10
2022-11-06T21:02:01.363Z,18.10
2022-11-06T21:04:31.355Z,18.10
2022-11-06T21:06:59.950Z,18.10
2022-11-06T21:09:28.280Z,18.10
2022-11-06T21:11:56.611Z,18.00
2022-11-06T21:14:24.995Z,18.00
2022-11-06T21:16:54.207Z,18.10
2022-11-06T21:19:22.707Z,18.00
2022-11-06T21:21:56.880Z,18.00
2022-11-06T21:24:25.898Z,18.00
2022-11-06T21:26:56.175Z,18.00
2022-11-06T21:29:26.150Z,17.90
2022-11-06T21:31:55.089Z,17.90
2022-11-06T21:34:23.406Z,17.90
2022-11-06T21:36:54.934Z,17.90
2022-11-06T21:39:29.482Z,17.90
2022-11-06T21:42:00.039Z,17.80
2022-11-06T21:44:28.487Z,17.80
2022-11-06T21:46:56.782Z,17.80
2022-11-06T21:49:25.074Z,17.80
2022-11-06T21:52:14.779Z,17.80
2022-11-06T21:55:00.576Z,17.70
2022-11-06T21:57:29.389Z,17.70
2022-11-06T22:00:00.325Z,17.70
2022-11-06T22:02:28.848Z,17.70
2022-11-06T22:04:57.490Z,17.70
2022-11-06T22:07:27.497Z,17.70
2022-11-06T22:09:56.270Z,17.60
2022-11-06T22:12:24.940Z,17.70
2022-11-06T22:14:53.528Z,17.60
2022-11-06T22:17:22.838Z,17.60
2022-11-06T22:19:51.744Z,17.60
2022-11-06T22:22:20.380Z,17.60
2022-11-06T22:24:50.966Z,17.60
2022-11-06T22:27:19.856Z,17.50
2022-11-06T22:29:48.869Z,17.50
2022-11-06T22:32:17.765Z,17.50
2022-11-06T22:34:46.048Z,17.50
2022-11-06T22:37:14.741Z,17.50
2022-11-06T22:39:43.601Z,17.50
2022-11-06T22:42:13.894Z,17.50
2022-11-06T22:44:43.194Z,17.40
2022-11-06T22:47:11.944Z,17.40
2022-11-06T22:49:41.128Z,17.40
2022-11-06T22:52:10.047Z,17.40
2022-11-06T22:54:38.584Z,17.40
2022-11-06T22:57:07.342Z,17.40
2022-11-06T22:59:38.004Z,17.30
2022-11-06T23:02:06.657Z,17.30
2022-11-06T23:04:36.791Z,17.30
2022-11-06T23:07:05.477Z,17.30
2022-11-06T23:09:33.757Z,17.30
2022-11-06T23:12:02.960Z,17.20
2022-11-06T23:14:31.815Z,17.20
2022-11-06T23:17:04.986Z,17.20
2022-11-06T23:19:33.818Z,17.20
2022-11-06T23:22:20.055Z,17.20
2022-11-06T23:24:48.441Z,17.20
2022-11-06T23:27:16.868Z,17.20
2022-11-06T23:29:45.646Z,17.20
2022-11-06T23:32:15.384Z,17.20
2022-11-06T23:34:43.746Z,17.10
2022-11-06T23:37:12.035Z,17.10
2022-11-06T23:39:40.448Z,17.10
2022-11-06T23:42:08.765Z,17.10
2022-11-06T23:44:54.468Z,17.00
2022-11-06T23:47:24.136Z,17.10
2022-11-06T23:49:52.539Z,17.00
2022-11-06T23:52:21.012Z,17.00
2022-11-06T23:54:49.295Z,17.00
2022-11-06T23:57:17.627Z,17.00
2022-11-06T23:59:45.966Z,16.90
